createdAt,value
2023-02-22T00:00:55.987Z,3.23
2023-02-22T00:03:32.053Z,3.22
2023-02-22T00:06:03.301Z,3.17
2023-02-22T00:08:35.280Z,3.12
2023-02-22T00:11:09.189Z,3.05
2023-02-22T00:13:39.303Z,3.04
2023-02-22T00:16:07.320Z,2.99
2023-02-22T00:18:34.502Z,2.96
2023-02-22T00:21:01.899Z,2.93
2023-02-22T00:23:31.850Z,2.93
2023-02-22T00:26:00.912Z,2.93
2023-02-22T00:28:28.618Z,2.89
2023-02-22T00:30:55.846Z,2.87
2023-02-22T00:33:23.747Z,2.83
2023-02-22T00:35:51.178Z,2.78
2023-02-22T00:38:19.775Z,2.78
2023-02-22T00:40:46.965Z,2.74
2023-02-22T00:43:15.172Z,2.72
2023-02-22T00:45:42.792Z,2.72
2023-02-22T00:48:11.087Z,2.68
2023-02-22T00:50:39.917Z,2.68
2023-02-22T00:53:07.804Z,2.67
2023-02-22T00:55:40.929Z,2.66
2023-02-22T00:58:09.869Z,2.66
2023-02-22T01:00:41.827Z,2.61
2023-02-22T01:03:13.425Z,2.60
2023-02-22T01:05:40.935Z,2.61
2023-02-22T01:08:11.594Z,2.61
2023-02-22T01:10:40.426Z,2.59
2023-02-22T01:13:09.829Z,2.61
2023-02-22T01:15:40.948Z,2.62
2023-02-22T01:18:09.014Z,2.64
2023-02-22T01:20:37.156Z,2.61
2023-02-22T01:23:06.660Z,2.60
2023-02-22T01:25:35.525Z,2.61
2023-02-22T01:28:05.993Z,2.56
2023-02-22T01:30:36.481Z,2.48
2023-02-22T01:33:07.167Z,2.47
2023-02-22T01:35:37.804Z,2.48
2023-02-22T01:38:05.292Z,2.47
2023-02-22T01:40:37.568Z,2.43
2023-02-22T01:43:24.259Z,2.41
2023-02-22T01:46:23.013Z,2.37
2023-02-22T01:49:03.128Z,2.36
2023-02-22T01:51:39.344Z,2.30
2023-02-22T01:54:14.906Z,2.26
2023-02-22T01:57:07.518Z,2.23
2023-02-22T01:59:40.656Z,2.20
2023-02-22T02:02:08.122Z,2.18
2023-02-22T02:04:36.373Z,2.18
2023-02-22T02:07:08.005Z,2.17
2023-02-22T02:09:54.453Z,2.16
2023-02-22T02:12:23.869Z,2.12
2023-02-22T02:14:51.262Z,2.10
2023-02-22T02:22:19.397Z,2.19
2023-02-22T02:29:45.380Z,2.18
2023-02-22T02:36:25.041Z,2.08
2023-02-22T02:39:13.671Z,2.07
2023-02-22T02:41:48.068Z,2.02
2023-02-22T02:44:28.548Z,1.99
2023-02-22T02:47:06.252Z,1.96
2023-02-22T02:49:51.735Z,1.91
2023-02-22T02:52:24.017Z,1.87
2023-02-22T02:54:53.408Z,1.84
2023-02-22T02:57:20.794Z,1.81
2023-02-22T02:59:48.127Z,1.82
2023-02-22T03:10:42.767Z,1.61
2023-02-22T03:13:26.906Z,1.62
2023-02-22T03:20:29.924Z,1.58
2023-02-22T03:23:16.806Z,1.61
2023-02-22T03:25:52.967Z,1.61
2023-02-22T03:28:25.702Z,1.58
2023-02-22T03:35:55.718Z,1.55
2023-02-22T03:38:29.460Z,1.49
2023-02-22T03:45:05.299Z,1.43
2023-02-22T03:47:47.892Z,1.43
2023-02-22T03:50:28.619Z,1.39
2023-02-22T03:52:57.643Z,1.34
2023-02-22T03:55:25.669Z,1.33
2023-02-22T03:58:03.109Z,1.32
2023-02-22T04:00:34.345Z,1.33
2023-02-22T04:03:02.344Z,1.31
2023-02-22T04:09:10.585Z,1.30
2023-02-22T04:11:38.060Z,1.29
2023-02-22T04:14:14.189Z,1.30
2023-02-22T04:16:41.564Z,1.31
2023-02-22T04:23:42.794Z,1.26
2023-02-22T04:30:19.588Z,1.20
2023-02-22T04:32:46.940Z,1.18
2023-02-22T04:35:14.239Z,1.20
2023-02-22T04:37:41.526Z,1.19
2023-02-22T04:44:14.884Z,1.06
2023-02-22T04:46:42.133Z,1.11
2023-02-22T04:49:09.837Z,1.10
2023-02-22T05:03:54.635Z,0.90
2023-02-22T05:06:22.039Z,0.92
2023-02-22T05:12:50.129Z,0.89
2023-02-22T05:15:21.875Z,0.89
2023-02-22T05:21:55.752Z,0.85
2023-02-22T05:24:23.422Z,0.85
2023-02-22T05:30:59.608Z,0.73
2023-02-22T05:37:26.789Z,0.73
2023-02-22T05:39:53.992Z,0.75
2023-02-22T05:46:27.717Z,0.70
2023-02-22T05:48:54.987Z,0.76
2023-02-22T05:55:24.383Z,0.73
2023-02-22T05:57:52.563Z,0.75
2023-02-22T06:00:29.718Z,0.75
2023-02-22T06:03:06.471Z,0.80
2023-02-22T06:05:34.478Z,0.80
2023-02-22T06:16:58.485Z,0.90
2023-02-22T06:19:25.664Z,0.90
2023-02-22T06:21:56.621Z,0.93
2023-02-22T06:24:24.294Z,0.88
2023-02-22T06:27:01.196Z,0.89
2023-02-22T06:29:29.617Z,0.90
2023-02-22T06:31:56.953Z,0.90
2023-02-22T06:34:24.549Z,0.93
2023-02-22T06:36:51.816Z,0.91
2023-02-22T06:39:19.501Z,0.96
2023-02-22T06:41:48.413Z,0.96
2023-02-22T06:44:15.904Z,1.02
2023-02-22T06:46:49.579Z,1.03
2023-02-22T06:49:17.916Z,1.05
2023-02-22T06:51:46.237Z,1.06
2023-02-22T06:54:13.845Z,1.10
2023-02-22T06:56:41.319Z,1.14
2023-02-22T06:59:08.619Z,1.14
2023-02-22T07:01:36.084Z,1.23
2023-02-22T07:04:03.761Z,1.29
2023-02-22T07:06:31.144Z,1.35
2023-02-22T07:08:58.523Z,1.36
2023-02-22T07:11:25.797Z,1.41
2023-02-22T07:13:53.115Z,1.38
2023-02-22T07:16:20.426Z,1.42
2023-02-22T07:18:47.898Z,1.45
2023-02-22T07:21:15.568Z,1.48
2023-02-22T07:23:51.556Z,1.54
2023-02-22T07:26:19.442Z,1.60
2023-02-22T07:28:47.099Z,1.69
2023-02-22T07:31:14.781Z,1.80
2023-02-22T07:33:42.478Z,1.92
2023-02-22T07:36:10.597Z,2.00
2023-02-22T07:38:37.811Z,2.07
2023-02-22T07:41:05.327Z,2.12
2023-02-22T07:43:32.627Z,2.16
2023-02-22T07:46:01.758Z,2.21
2023-02-22T07:48:31.758Z,2.25
2023-02-22T07:50:59.747Z,2.26
2023-02-22T07:53:31.676Z,2.33
2023-02-22T07:56:03.300Z,2.36
2023-02-22T07:58:33.258Z,2.39
2023-02-22T08:01:01.203Z,2.47
2023-02-22T08:03:33.095Z,2.60
2023-02-22T08:06:00.387Z,2.73
2023-02-22T08:08:27.652Z,2.82
2023-02-22T08:10:55.833Z,2.89
2023-02-22T08:13:24.031Z,2.98
2023-02-22T08:15:53.994Z,3.09
2023-02-22T08:18:23.496Z,3.19
2023-02-22T08:20:53.496Z,3.30
2023-02-22T08:23:27.224Z,3.36
2023-02-22T08:25:55.726Z,3.42
2023-02-22T08:28:25.291Z,3.45
2023-02-22T08:30:53.704Z,3.53
2023-02-22T08:33:21.251Z,3.55
2023-02-22T08:35:49.786Z,3.62
2023-02-22T08:38:28.191Z,3.72
2023-02-22T08:40:56.174Z,3.76
2023-02-22T08:43:24.584Z,3.81
2023-02-22T08:45:52.978Z,3.91
2023-02-22T08:48:21.397Z,4.01
2023-02-22T08:50:48.758Z,4.14
2023-02-22T08:53:16.708Z,4.29
2023-02-22T08:55:45.075Z,4.34
2023-02-22T08:58:32.454Z,4.45
2023-02-22T09:01:00.039Z,4.55
2023-02-22T09:03:27.459Z,4.65
2023-02-22T09:06:30.607Z,4.82
2023-02-22T09:09:04.248Z,4.94
2023-02-22T09:11:31.449Z,5.05
2023-02-22T09:13:58.878Z,5.16
2023-02-22T09:16:26.100Z,5.30
2023-02-22T09:19:07.441Z,5.42
2023-02-22T09:21:34.772Z,5.53
2023-02-22T09:24:05.330Z,5.66
2023-02-22T09:26:32.556Z,5.76
2023-02-22T09:29:07.560Z,5.86
2023-02-22T09:35:34.454Z,6.06
2023-02-22T09:38:03.593Z,6.16
2023-02-22T09:40:34.588Z,6.26
2023-02-22T09:43:26.543Z,6.37
2023-02-22T09:50:22.905Z,6.59
2023-02-22T09:53:42.360Z,6.67
2023-02-22T09:56:29.743Z,6.75
2023-02-22T09:59:03.349Z,6.84
2023-02-22T10:05:39.644Z,7.03
2023-02-22T10:08:14.158Z,7.17
2023-02-22T10:11:34.606Z,7.30
2023-02-22T10:14:10.894Z,7.36
2023-02-22T10:17:09.314Z,7.47
2023-02-22T10:20:22.057Z,7.57
2023-02-22T10:23:20.021Z,7.64
2023-02-22T10:26:15.218Z,7.79
2023-02-22T10:28:59.600Z,7.88
2023-02-22T10:31:46.353Z,7.98
2023-02-22T10:34:26.335Z,8.10
2023-02-22T10:37:19.561Z,8.17
2023-02-22T10:39:51.089Z,8.20
2023-02-22T10:42:22.117Z,8.30
2023-02-22T10:44:49.563Z,8.35
2023-02-22T10:47:21.934Z,8.38
2023-02-22T10:50:01.477Z,8.46
2023-02-22T10:52:32.881Z,8.50
2023-02-22T10:55:14.558Z,8.55
2023-02-22T10:57:47.706Z,8.59
2023-02-22T11:00:31.657Z,8.66
2023-02-22T11:03:03.688Z,8.71
2023-02-22T11:05:40.709Z,8.76
2023-02-22T11:08:25.950Z,8.84
2023-02-22T11:11:01.933Z,8.92
2023-02-22T11:13:38.209Z,9.02
2023-02-22T11:16:38.514Z,9.10
2023-02-22T11:19:32.739Z,9.24
2023-02-22T11:22:06.084Z,9.36
2023-02-22T11:24:48.507Z,9.51
2023-02-22T11:27:35.001Z,9.77
2023-02-22T11:30:25.998Z,10.17
2023-02-22T11:33:16.072Z,11.08
2023-02-22T11:36:02.116Z,12.38
2023-02-22T11:38:35.695Z,13.85
2023-02-22T11:41:20.840Z,15.29
2023-02-22T11:43:51.253Z,16.42
2023-02-22T11:46:33.548Z,17.30
2023-02-22T11:49:12.649Z,17.87
2023-02-22T11:52:10.435Z,17.97
2023-02-22T11:55:17.591Z,18.00
2023-02-22T11:58:00.582Z,18.34
2023-02-22T12:01:08.475Z,18.97
2023-02-22T12:04:23.693Z,19.81
2023-02-22T12:07:44.771Z,20.68
2023-02-22T12:10:15.363Z,21.38
2023-02-22T12:12:51.915Z,22.02
2023-02-22T12:15:38.559Z,22.24
2023-02-22T12:18:39.684Z,22.02
2023-02-22T12:21:16.913Z,21.82
2023-02-22T12:24:10.272Z,21.90
2023-02-22T12:26:48.638Z,22.20
2023-02-22T12:29:41.785Z,22.60
2023-02-22T12:32:12.112Z,22.90
2023-02-22T12:34:42.249Z,23.04
2023-02-22T12:37:54.660Z,23.18
2023-02-22T12:40:38.089Z,23.21
2023-02-22T12:43:32.690Z,23.21
2023-02-22T12:46:15.375Z,22.98
2023-02-22T12:49:21.870Z,22.97
2023-02-22T12:52:46.603Z,22.82
2023-02-22T12:55:23.784Z,22.64
2023-02-22T12:58:05.050Z,22.45
2023-02-22T13:01:20.288Z,21.92
2023-02-22T13:03:48.089Z,21.29
2023-02-22T13:06:30.984Z,20.74
2023-02-22T13:09:41.323Z,19.99
2023-02-22T13:13:08.018Z,19.37
2023-02-22T13:16:33.493Z,19.31
2023-02-22T13:19:18.416Z,19.57
2023-02-22T13:26:08.869Z,20.00
2023-02-22T13:28:48.324Z,19.88
2023-02-22T13:35:51.875Z,19.43
2023-02-22T13:39:19.285Z,19.27
2023-02-22T13:42:08.772Z,18.95
2023-02-22T13:44:38.676Z,18.62
2023-02-22T13:47:23.933Z,18.22
2023-02-22T13:50:16.256Z,17.81
2023-02-22T13:52:48.050Z,17.40
2023-02-22T13:59:37.244Z,17.20
2023-02-22T14:02:06.379Z,17.46
2023-02-22T14:04:39.579Z,17.81
2023-02-22T14:07:21.901Z,17.94
2023-02-22T14:09:54.878Z,17.79
2023-02-22T14:12:30.898Z,17.54
2023-02-22T14:15:28.314Z,17.26
2023-02-22T14:18:05.345Z,17.06
2023-02-22T14:24:46.799Z,16.63
2023-02-22T14:27:16.086Z,16.41
2023-02-22T14:30:00.482Z,16.28
2023-02-22T14:32:34.507Z,16.18
2023-02-22T14:35:25.503Z,16.00
2023-02-22T14:37:58.058Z,15.91
2023-02-22T14:40:31.746Z,15.78
2023-02-22T14:43:14.819Z,15.61
2023-02-22T14:46:00.214Z,15.43
2023-02-22T14:48:33.203Z,15.31
2023-02-22T14:51:21.369Z,15.19
2023-02-22T14:53:58.251Z,14.93
2023-02-22T15:00:50.486Z,14.29
2023-02-22T15:03:33.226Z,14.15
2023-02-22T15:10:22.429Z,13.76
2023-02-22T15:13:03.207Z,13.67
2023-02-22T15:15:31.652Z,13.54
2023-02-22T15:17:59.173Z,13.49
2023-02-22T15:20:27.420Z,13.42
2023-02-22T15:23:00.418Z,13.33
2023-02-22T15:25:30.801Z,13.21
2023-02-22T15:28:05.128Z,13.12
2023-02-22T15:30:33.602Z,13.07
2023-02-22T15:33:20.518Z,12.96
2023-02-22T15:35:57.800Z,12.84
2023-02-22T15:38:30.752Z,12.74
2023-02-22T15:45:05.347Z,12.49
2023-02-22T15:47:32.804Z,12.42
2023-02-22T15:50:24.861Z,12.31
2023-02-22T15:53:06.674Z,12.21
2023-02-22T15:55:47.471Z,12.09
2023-02-22T15:58:27.331Z,12.02
2023-02-22T16:05:10.433Z,11.72
2023-02-22T16:07:46.681Z,11.65
2023-02-22T16:10:31.546Z,11.54
2023-02-22T16:13:31.628Z,11.45
2023-02-22T16:16:03.818Z,11.34
2023-02-22T16:22:37.078Z,11.09
2023-02-22T16:25:19.586Z,11.06
2023-02-22T16:28:00.189Z,10.97
2023-02-22T16:30:45.375Z,10.83
2023-02-22T16:33:12.594Z,10.76
2023-02-22T16:39:40.864Z,10.62
2023-02-22T16:42:09.244Z,10.60
2023-02-22T16:44:36.401Z,10.52
2023-02-22T16:47:03.766Z,10.50
2023-02-22T16:49:30.935Z,10.43
2023-02-22T16:56:09.661Z,10.16
2023-02-22T17:06:49.370Z,9.89
2023-02-22T17:13:23.546Z,9.73
2023-02-22T17:15:53.168Z,9.70
2023-02-22T17:22:26.255Z,9.55
2023-02-22T17:24:53.506Z,9.55
2023-02-22T17:27:20.829Z,9.51
2023-02-22T17:29:49.318Z,9.47
2023-02-22T17:32:16.885Z,9.48
2023-02-22T17:34:44.059Z,9.42
2023-02-22T17:37:11.355Z,9.37
2023-02-22T17:39:38.617Z,9.34
2023-02-22T17:46:08.141Z,9.12
2023-02-22T17:52:35.394Z,8.88
2023-02-22T17:59:02.240Z,8.82
2023-02-22T18:01:32.177Z,8.78
2023-02-22T18:04:02.939Z,8.74
2023-02-22T18:10:40.203Z,8.60
2023-02-22T18:13:17.342Z,8.56
2023-02-22T18:15:47.260Z,8.50
2023-02-22T18:18:17.881Z,8.44
2023-02-22T18:24:51.433Z,8.36
2023-02-22T18:27:18.803Z,8.34
2023-02-22T18:29:46.076Z,8.28
2023-02-22T18:32:13.700Z,8.23
2023-02-22T18:34:41.068Z,8.21
2023-02-22T18:37:08.301Z,8.20
2023-02-22T18:39:35.742Z,8.22
2023-02-22T18:42:03.066Z,8.24
2023-02-22T18:44:30.398Z,8.24
2023-02-22T18:51:09.362Z,8.12
2023-02-22T18:53:38.180Z,8.22
2023-02-22T18:56:18.418Z,8.25
2023-02-22T18:58:46.103Z,8.26
2023-02-22T19:01:18.737Z,8.29
2023-02-22T19:07:52.301Z,8.27
2023-02-22T19:11:20.648Z,8.35
2023-02-22T19:14:04.629Z,8.44
2023-02-22T19:20:38.348Z,8.50
2023-02-22T19:23:05.633Z,8.52
2023-02-22T19:25:33.279Z,8.50
2023-02-22T19:28:03.529Z,8.48
2023-02-22T19:30:30.954Z,8.43
2023-02-22T19:32:58.421Z,8.39
2023-02-22T19:35:25.846Z,8.35
2023-02-22T19:38:05.818Z,8.34
2023-02-22T19:40:33.210Z,8.25
2023-02-22T19:43:00.622Z,8.22
2023-02-22T19:45:30.500Z,8.11
2023-02-22T19:47:57.917Z,8.05
2023-02-22T19:50:25.425Z,8.00
2023-02-22T19:52:52.769Z,7.94
2023-02-22T19:55:19.963Z,7.89
2023-02-22T19:57:47.505Z,7.87
2023-02-22T20:00:15.421Z,7.87
2023-02-22T20:02:43.036Z,7.85
2023-02-22T20:05:12.006Z,7.83
2023-02-22T20:07:39.598Z,7.78
2023-02-22T20:10:07.254Z,7.75
2023-02-22T20:12:34.633Z,7.78
2023-02-22T20:15:01.826Z,7.76
2023-02-22T20:17:29.067Z,7.76
2023-02-22T20:19:56.274Z,7.76
2023-02-22T20:22:23.825Z,7.74
2023-02-22T20:24:51.634Z,7.69
2023-02-22T20:27:19.166Z,7.65
2023-02-22T20:29:46.491Z,7.60
2023-02-22T20:32:17.060Z,7.55
2023-02-22T20:34:47.745Z,7.49
2023-02-22T20:37:14.971Z,7.48
2023-02-22T20:43:54.121Z,7.30
2023-02-22T20:46:23.789Z,7.25
2023-02-22T20:48:56.773Z,7.25
2023-02-22T20:51:24.903Z,7.15
2023-02-22T20:53:52.845Z,7.11
2023-02-22T20:56:24.836Z,7.05
2023-02-22T20:58:52.214Z,6.99
2023-02-22T21:01:21.171Z,6.93
2023-02-22T21:08:06.489Z,6.76
2023-02-22T21:10:45.079Z,6.72
2023-02-22T21:13:13.630Z,6.67
2023-02-22T21:15:41.089Z,6.64
2023-02-22T21:18:08.333Z,6.66
2023-02-22T21:20:36.774Z,6.63
2023-02-22T21:23:04.399Z,6.59
2023-02-22T21:25:32.127Z,6.57
2023-02-22T21:27:59.649Z,6.53
2023-02-22T21:30:27.966Z,6.54
2023-02-22T21:32:55.735Z,6.48
2023-02-22T21:35:25.565Z,6.43
2023-02-22T21:37:52.863Z,6.42
2023-02-22T21:40:20.349Z,6.41
2023-02-22T21:42:50.516Z,6.37
2023-02-22T21:45:20.796Z,6.32
2023-02-22T21:47:49.767Z,6.25
2023-02-22T21:50:19.451Z,6.27
2023-02-22T21:52:48.636Z,6.22
2023-02-22T21:55:16.426Z,6.20
2023-02-22T21:57:43.688Z,6.16
2023-02-22T22:00:12.662Z,6.12
2023-02-22T22:02:39.939Z,6.06
2023-02-22T22:05:08.000Z,6.06
2023-02-22T22:07:35.279Z,6.07
2023-02-22T22:14:11.250Z,5.98
2023-02-22T22:16:38.511Z,5.96
2023-02-22T22:19:05.783Z,5.91
2023-02-22T22:21:32.972Z,5.89
2023-02-22T22:24:00.339Z,5.88
2023-02-22T22:26:27.750Z,5.91
2023-02-22T22:28:59.449Z,5.98
2023-02-22T22:31:27.981Z,6.00
2023-02-22T22:33:56.707Z,6.02
2023-02-22T22:36:26.806Z,5.99
2023-02-22T22:38:55.404Z,5.99
2023-02-22T22:41:23.476Z,5.95
2023-02-22T22:43:51.192Z,5.95
2023-02-22T22:46:18.665Z,5.95
2023-02-22T22:48:46.419Z,5.94
2023-02-22T22:51:20.949Z,5.95
2023-02-22T22:53:50.291Z,5.94
2023-02-22T22:56:22.688Z,5.99
2023-02-22T22:58:58.810Z,5.99
2023-02-22T23:01:30.530Z,6.00
2023-02-22T23:04:04.637Z,5.99
2023-02-22T23:06:44.953Z,5.94
2023-02-22T23:09:18.178Z,5.92
2023-02-22T23:11:51.200Z,5.85
2023-02-22T23:18:18.113Z,5.65
2023-02-22T23:20:45.492Z,5.58
2023-02-22T23:23:12.764Z,5.47
2023-02-22T23:25:42.756Z,5.35
2023-02-22T23:28:10.241Z,5.35
2023-02-22T23:30:38.501Z,5.28
2023-02-22T23:33:05.773Z,5.27
2023-02-22T23:35:33.176Z,5.22
2023-02-22T23:38:00.734Z,5.15
2023-02-22T23:40:28.297Z,5.12
2023-02-22T23:42:55.647Z,5.06
2023-02-22T23:45:24.485Z,5.04
2023-02-22T23:47:57.055Z,5.01
2023-02-22T23:50:27.980Z,4.95
2023-02-22T23:53:01.046Z,4.90
2023-02-22T23:55:32.681Z,4.86
2023-02-22T23:58:00.708Z,4.82
